Time;durP1;ratioP1;P1;durP2;ratioP2;P2;SDS_P1;SDS_P2;PMS_P1;PMS_P2;Temp;Humidity;BMP_temperature;BMP_pressure;BME280_temperature;BME280_humidity;BME280_pressure;Samples;Min_cycle;Max_cycle;Signal;HPM_P1;HPM_P2
2022/09/10 00:00:59;;;;;;;20.10;15.00;;;27.00;95.70;;;;;;6296497;22;20628;-94
2022/09/10 00:06:34;;;;;;;16.23;14.13;;;26.50;95.10;;;;;;6293712;22;20175;-95
2022/09/10 00:12:08;;;;;;;15.57;13.70;;;26.20;95.50;;;;;;6294454;22;20187;-92
2022/09/10 00:14:42;;;;;;;16.37;13.67;;;26.00;95.10;;;;;;6269422;22;20238;-94
2022/09/10 00:17:21;;;;;;;17.07;14.30;;;26.00;95.40;;;;;;6294831;22;20197;-94
2022/09/10 00:19:53;;;;;;;18.57;14.43;;;26.00;95.00;;;;;;6294239;22;20174;-93
2022/09/10 00:22:27;;;;;;;19.70;14.60;;;26.00;95.20;;;;;;6294882;22;20238;-93
2022/09/10 00:25:06;;;;;;;17.63;14.60;;;25.90;95.70;;;;;;6298252;22;20215;-93
2022/09/10 00:27:47;;;;;;;15.90;14.30;;;25.90;96.30;;;;;;6297969;22;20197;-93
2022/09/10 00:30:30;;;;;;;17.53;14.40;;;25.90;96.20;;;;;;6291474;22;20250;-93
2022/09/10 00:33:18;;;;;;;17.80;14.93;;;25.90;95.90;;;;;;6287254;22;20175;-93
2022/09/10 00:44:26;;;;;;;18.83;15.43;;;25.80;95.70;;;;;;6265287;22;20217;-92
2022/09/10 00:47:06;;;;;;;18.90;15.73;;;25.70;95.90;;;;;;6238248;23;20248;-91
2022/09/10 00:50:01;;;;;;;21.70;15.67;;;25.50;95.90;;;;;;6236100;23;20184;-92
2022/09/10 00:52:44;;;;;;;17.90;16.07;;;25.40;96.10;;;;;;6239567;23;20203;-92
2022/09/10 00:55:38;;;;;;;17.53;15.60;;;25.30;96.30;;;;;;6238351;23;20211;-93
2022/09/10 00:58:26;;;;;;;20.87;16.73;;;25.20;96.40;;;;;;6235136;23;20173;-92
2022/09/10 01:04:22;;;;;;;19.10;17.10;;;25.00;96.30;;;;;;6228162;23;20204;-93
2022/09/10 01:07:04;;;;;;;21.97;17.73;;;24.90;96.00;;;;;;6234158;23;20200;-93
2022/09/10 01:15:45;;;;;;;20.63;18.13;;;24.60;96.10;;;;;;6230560;23;20203;-93
2022/09/10 01:18:31;;;;;;;22.67;18.77;;;24.50;96.70;;;;;;6231101;23;20182;-93
2022/09/10 01:21:14;;;;;;;20.47;18.33;;;24.40;96.50;;;;;;6222918;23;20176;-93
2022/09/10 01:24:38;;;;;;;22.63;17.70;;;24.30;97.50;;;;;;6224762;23;20263;-93
2022/09/10 01:27:32;;;;;;;19.83;17.83;;;24.20;96.50;;;;;;6142577;23;20178;-93
2022/09/10 01:30:21;;;;;;;19.23;17.30;;;24.00;96.70;;;;;;6116671;23;20186;-93
2022/09/10 01:33:04;;;;;;;20.10;18.07;;;23.90;96.80;;;;;;6207384;23;20176;-93
2022/09/10 01:35:44;;;;;;;23.23;17.07;;;23.80;98.20;;;;;;6226553;23;20178;-93
2022/09/10 01:38:21;;;;;;;20.40;17.47;;;23.60;97.70;;;;;;6229493;23;20222;-93
2022/09/10 01:41:07;;;;;;;18.30;16.33;;;23.50;99.90;;;;;;6230364;23;20179;-93
2022/09/10 01:43:46;;;;;;;22.67;15.50;;;23.30;98.60;;;;;;6234353;23;20188;-94
2022/09/10 01:46:33;;;;;;;17.67;15.73;;;23.10;98.50;;;;;;6268545;23;20657;-93
2022/09/10 01:49:28;;;;;;;17.10;14.53;;;23.00;99.30;;;;;;6266131;23;20180;-93
2022/09/10 01:52:19;;;;;;;16.70;13.17;;;22.90;99.20;;;;;;6262523;23;20202;-94
2022/09/10 01:55:16;;;;;;;17.23;11.50;;;22.80;98.90;;;;;;6272273;22;20190;-93
2022/09/10 01:58:01;;;;;;;11.43;10.20;;;22.70;98.20;;;;;;6271979;22;20179;-93
2022/09/10 02:03:15;;;;;;;12.00;10.33;;;22.40;99.60;;;;;;6275922;22;20430;-92
2022/09/10 02:05:49;;;;;;;11.30;9.97;;;22.30;98.70;;;;;;6301205;22;20229;-93
2022/09/10 02:08:32;;;;;;;13.53;8.47;;;22.20;99.30;;;;;;6303022;22;20185;-91
2022/09/10 02:16:30;;;;;;;8.57;7.33;;;21.80;99.00;;;;;;6244188;22;20246;-94
2022/09/10 02:30:49;;;;;;;8.17;5.63;;;21.40;99.90;;;;;;6237232;23;20191;-92
2022/09/10 02:36:24;;;;;;;10.50;5.57;;;21.10;99.90;;;;;;6237151;23;20177;-93
2022/09/10 02:39:13;;;;;;;7.87;5.27;;;21.00;99.90;;;;;;5053462;27;3003893;-93
2022/09/10 02:41:46;;;;;;;11.77;4.97;;;20.90;99.90;;;;;;5139248;28;20210;-93
2022/09/10 02:44:19;;;;;;;9.50;5.47;;;20.70;99.90;;;;;;5124074;28;20308;-93
2022/09/10 02:46:50;;;;;;;12.33;5.50;;;20.50;99.90;;;;;;5134427;28;20216;-94
2022/09/10 02:55:03;;;;;;;9.17;5.13;;;20.10;99.90;;;;;;5112304;22;20247;-93
2022/09/10 02:57:34;;;;;;;8.93;5.67;;;20.00;99.90;;;;;;5080048;28;20235;-92
2022/09/10 03:00:09;;;;;;;11.07;6.03;;;19.80;99.90;;;;;;5084768;28;20203;-92
2022/09/10 03:02:41;;;;;;;6.63;5.47;;;19.70;99.90;;;;;;5075854;28;20235;-93
2022/09/10 03:08:03;;;;;;;10.53;5.60;;;19.50;99.90;;;;;;5077029;28;20188;-93
2022/09/10 03:10:38;;;;;;;6.47;5.00;;;19.30;99.90;;;;;;5082775;28;20195;-93
2022/09/10 03:13:23;;;;;;;7.60;5.10;;;19.20;99.90;;;;;;5075717;28;20208;-93
2022/09/10 03:15:57;;;;;;;6.33;4.93;;;19.10;99.90;;;;;;5077969;28;20637;-93
2022/09/10 03:18:44;;;;;;;8.37;5.20;;;19.00;99.90;;;;;;5084978;28;20298;-92
2022/09/10 03:21:21;;;;;;;8.60;5.27;;;18.90;99.90;;;;;;5086886;28;20257;-93
2022/09/10 03:23:55;;;;;;;9.63;5.67;;;18.90;99.90;;;;;;5082081;28;20215;-93
2022/09/10 03:32:00;;;;;;;9.03;5.13;;;18.60;99.90;;;;;;5051809;28;20241;-93
2022/09/10 03:34:48;;;;;;;6.57;4.90;;;18.40;99.90;;;;;;5048646;28;20197;-93
2022/09/10 03:40:33;;;;;;;11.77;5.70;;;18.30;99.90;;;;;;5048724;28;20268;-93
2022/09/10 03:43:52;;;;;;;6.30;5.37;;;18.20;99.90;;;;;;5046327;28;20205;-93
2022/09/10 03:46:51;;;;;;;7.10;5.70;;;18.10;99.90;;;;;;5046660;28;20728;-91
2022/09/10 03:52:32;;;;;;;10.87;5.60;;;17.90;99.90;;;;;;5029737;28;20198;-93
2022/09/10 03:55:06;;;;;;;8.37;5.10;;;17.90;99.90;;;;;;5033637;28;20209;-92
2022/09/10 03:57:47;;;;;;;10.67;6.40;;;17.80;99.90;;;;;;5033055;28;20225;-92
2022/09/10 04:14:06;;;;;;;7.90;4.97;;;17.60;99.90;;;;;;5072736;28;20219;-94
2022/09/10 04:16:42;;;;;;;8.00;4.53;;;17.50;99.90;;;;;;5074494;28;20216;-94
2022/09/10 04:19:16;;;;;;;6.87;4.63;;;17.50;99.90;;;;;;5058731;28;20258;-93
2022/09/10 04:21:51;;;;;;;12.93;4.77;;;17.40;99.90;;;;;;5075281;28;20216;-93
2022/09/10 04:24:29;;;;;;;6.50;4.90;;;17.40;99.90;;;;;;5051968;28;20211;-91
2022/09/10 04:27:09;;;;;;;5.87;4.60;;;17.30;99.90;;;;;;5064548;28;20227;-92
2022/09/10 04:29:54;;;;;;;7.17;4.60;;;17.30;99.90;;;;;;5063166;28;20219;-92
2022/09/10 04:35:19;;;;;;;7.00;4.33;;;17.10;99.90;;;;;;5066164;28;20205;-93
2022/09/10 04:38:05;;;;;;;6.87;4.53;;;17.00;99.90;;;;;;5063153;28;20236;-92
2022/09/10 04:40:50;;;;;;;8.53;4.77;;;17.00;99.90;;;;;;5063439;28;20677;-92
2022/09/10 04:43:29;;;;;;;6.60;4.03;;;16.90;99.90;;;;;;5063954;28;20231;-92
2022/09/10 04:46:04;;;;;;;7.67;4.60;;;16.90;99.90;;;;;;5063273;28;20228;-93
2022/09/10 04:48:39;;;;;;;10.83;5.57;;;16.80;99.90;;;;;;5065580;28;20211;-93
2022/09/10 04:51:20;;;;;;;9.47;5.50;;;16.70;99.90;;;;;;5063243;28;20204;-92
2022/09/10 04:53:55;;;;;;;10.23;5.70;;;16.70;99.90;;;;;;5062908;28;20207;-93
2022/09/10 04:56:33;;;;;;;8.90;4.90;;;16.60;99.90;;;;;;5061849;28;20200;-93
2022/09/10 04:59:04;;;;;;;7.57;4.73;;;16.60;99.90;;;;;;5041965;28;20240;-92
2022/09/10 05:05:29;;;;;;;6.87;4.37;;;16.50;99.90;;;;;;5071234;28;20230;-93
2022/09/10 05:08:20;;;;;;;9.40;4.70;;;16.40;99.90;;;;;;5063486;28;20231;-92
2022/09/10 05:10:57;;;;;;;8.30;4.60;;;16.40;99.90;;;;;;5062665;28;20216;-91
2022/09/10 05:16:18;;;;;;;10.43;5.17;;;16.20;99.90;;;;;;5058098;28;20691;-92
2022/09/10 05:18:49;;;;;;;10.60;4.20;;;16.10;99.90;;;;;;5060599;28;20243;-93
2022/09/10 05:21:21;;;;;;;12.47;4.37;;;16.00;99.90;;;;;;5066471;28;20251;-93
2022/09/10 05:24:17;;;;;;;9.80;4.40;;;16.00;99.90;;;;;;5072023;28;20264;-93
2022/09/10 05:26:48;;;;;;;9.10;4.17;;;15.90;99.90;;;;;;5060440;28;20235;-93
2022/09/10 05:29:20;;;;;;;8.17;4.00;;;15.90;99.90;;;;;;5061052;28;20228;-93
2022/09/10 05:31:52;;;;;;;6.40;4.27;;;15.80;99.90;;;;;;5059469;28;20284;-93
2022/09/10 05:34:23;;;;;;;7.13;3.57;;;15.80;99.90;;;;;;5062356;28;20208;-93
2022/09/10 05:36:55;;;;;;;5.53;3.87;;;15.70;99.90;;;;;;5061853;28;20204;-92
2022/09/10 05:39:30;;;;;;;5.57;3.60;;;15.70;99.90;;;;;;5059235;28;20234;-93
2022/09/10 05:42:01;;;;;;;8.73;3.53;;;15.60;99.90;;;;;;5059443;28;20613;-93
2022/09/10 05:44:36;;;;;;;6.13;3.50;;;15.60;99.90;;;;;;5070547;28;20227;-93
2022/09/10 05:47:08;;;;;;;6.13;4.13;;;15.60;99.90;;;;;;5061051;28;20287;-93
2022/09/10 05:49:39;;;;;;;6.97;4.47;;;15.60;99.90;;;;;;5057978;28;20663;-94
2022/09/10 05:52:10;;;;;;;9.17;4.37;;;15.50;99.90;;;;;;5049310;28;20227;-93
2022/09/10 05:54:45;;;;;;;6.10;4.20;;;15.50;99.90;;;;;;5039892;28;20276;-92
2022/09/10 05:57:16;;;;;;;4.60;3.87;;;15.40;99.90;;;;;;5024025;28;20219;-92
2022/09/10 05:59:48;;;;;;;8.40;4.20;;;15.40;99.90;;;;;;5040562;28;20244;-92
2022/09/10 06:02:20;;;;;;;7.23;4.47;;;15.30;99.90;;;;;;5037919;28;20314;-92
2022/09/10 06:04:53;;;;;;;7.40;4.07;;;15.30;99.90;;;;;;5039765;28;20661;-93
2022/09/10 06:07:27;;;;;;;6.13;4.00;;;15.20;99.90;;;;;;5039419;28;20223;-92
2022/09/10 06:10:02;;;;;;;5.97;4.10;;;15.20;99.90;;;;;;5041109;28;20208;-93
2022/09/10 06:12:34;;;;;;;6.23;4.40;;;15.20;99.90;;;;;;5036606;28;20216;-93
2022/09/10 06:15:07;;;;;;;8.23;4.13;;;15.20;99.90;;;;;;5043068;28;20669;-91
2022/09/10 06:17:39;;;;;;;4.77;4.30;;;15.10;99.90;;;;;;5046662;28;20209;-91
2022/09/10 06:20:12;;;;;;;7.87;4.00;;;15.10;99.90;;;;;;5043265;28;20768;-91
2022/09/10 06:22:43;;;;;;;6.27;4.13;;;15.10;99.90;;;;;;5041036;28;20253;-93
2022/09/10 06:25:16;;;;;;;5.40;4.10;;;15.00;99.90;;;;;;5037457;28;20215;-93
2022/09/10 06:27:49;;;;;;;7.40;4.00;;;15.10;99.90;;;;;;5037156;28;20225;-93
2022/09/10 06:30:20;;;;;;;9.43;4.57;;;15.00;99.90;;;;;;5036927;28;20205;-93
2022/09/10 06:32:52;;;;;;;4.80;3.67;;;15.00;99.90;;;;;;5037686;28;20213;-93
2022/09/10 06:35:24;;;;;;;5.93;4.00;;;15.00;99.90;;;;;;5021320;28;20205;-92
2022/09/10 06:37:55;;;;;;;13.70;3.77;;;15.00;99.90;;;;;;5037081;28;20212;-90
2022/09/10 06:40:30;;;;;;;6.97;3.83;;;15.00;99.90;;;;;;5038347;28;20235;-93
2022/09/10 06:43:03;;;;;;;5.97;3.90;;;15.00;99.90;;;;;;5036439;28;20212;-93
2022/09/10 06:45:35;;;;;;;4.33;3.93;;;15.00;99.90;;;;;;5020227;28;20234;-93
2022/09/10 06:48:06;;;;;;;7.37;3.67;;;15.00;99.90;;;;;;5038122;28;20648;-93
2022/09/10 06:50:59;;;;;;;5.23;3.67;;;14.90;99.90;;;;;;5036438;28;20205;-93
2022/09/10 06:53:32;;;;;;;9.13;3.93;;;14.90;99.90;;;;;;5054879;28;20336;-93
2022/09/10 06:56:07;;;;;;;6.50;4.23;;;14.90;99.90;;;;;;5056838;28;20212;-92
2022/09/10 06:58:37;;;;;;;8.43;3.80;;;14.90;99.90;;;;;;5056842;28;20199;-93
2022/09/10 07:01:10;;;;;;;4.80;3.57;;;14.90;99.90;;;;;;5056410;28;20208;-93
2022/09/10 07:03:43;;;;;;;5.60;4.03;;;14.90;99.90;;;;;;5055655;28;20274;-92
2022/09/10 07:06:16;;;;;;;6.67;3.47;;;14.90;99.90;;;;;;5055753;28;20204;-92
2022/09/10 07:08:47;;;;;;;7.70;4.30;;;14.90;99.90;;;;;;5062221;28;20287;-93
2022/09/10 07:11:47;;;;;;;7.27;4.17;;;14.90;99.90;;;;;;5059476;28;20215;-93
2022/09/10 07:14:18;;;;;;;6.67;3.77;;;14.80;99.90;;;;;;5061097;28;20297;-93
2022/09/10 07:16:52;;;;;;;6.67;4.40;;;14.80;99.90;;;;;;5056936;28;20209;-92
2022/09/10 07:19:23;;;;;;;5.73;4.20;;;14.80;99.90;;;;;;5057361;28;20235;-93
2022/09/10 07:21:54;;;;;;;6.03;3.77;;;14.70;99.90;;;;;;5051196;28;20220;-92
2022/09/10 07:24:25;;;;;;;6.00;4.10;;;14.70;99.90;;;;;;5038575;28;20253;-92
2022/09/10 07:27:03;;;;;;;6.13;3.60;;;14.60;99.90;;;;;;5040866;28;20287;-92
2022/09/10 07:29:34;;;;;;;7.93;4.10;;;14.60;99.90;;;;;;5046509;28;20252;-91
2022/09/10 07:32:06;;;;;;;6.83;3.77;;;14.60;99.90;;;;;;5056852;28;20232;-92
2022/09/10 07:34:42;;;;;;;6.47;3.77;;;14.50;99.90;;;;;;5058207;28;20212;-93
2022/09/10 07:37:14;;;;;;;4.07;3.63;;;14.50;99.90;;;;;;5054910;28;20299;-93
2022/09/10 07:39:46;;;;;;;5.70;3.70;;;14.50;99.90;;;;;;5052486;28;20316;-93
2022/09/10 07:42:19;;;;;;;7.20;3.70;;;14.40;99.90;;;;;;5047178;28;20604;-93
2022/09/10 07:44:50;;;;;;;4.67;4.00;;;14.50;99.90;;;;;;5045939;28;20236;-92
2022/09/10 07:47:22;;;;;;;6.00;3.77;;;14.40;99.90;;;;;;5041080;28;20201;-93
2022/09/10 07:49:53;;;;;;;5.07;4.07;;;14.30;99.90;;;;;;5042244;28;20219;-93
2022/09/10 07:52:24;;;;;;;9.37;4.27;;;14.30;99.90;;;;;;5041461;28;20630;-93
2022/09/10 07:54:55;;;;;;;6.50;3.70;;;14.20;99.90;;;;;;5042645;28;20287;-92
2022/09/10 07:57:30;;;;;;;7.73;3.70;;;14.20;99.90;;;;;;5041704;28;20707;-93
2022/09/10 08:00:01;;;;;;;9.87;4.03;;;14.10;99.90;;;;;;5043471;28;20228;-93
2022/09/10 08:02:33;;;;;;;4.13;3.40;;;14.10;99.90;;;;;;5041393;28;20215;-93
2022/09/10 08:05:04;;;;;;;6.30;3.70;;;14.10;99.90;;;;;;5043598;28;20248;-92
2022/09/10 08:07:35;;;;;;;5.97;3.23;;;14.00;99.90;;;;;;5039640;28;20223;-93
2022/09/10 08:10:09;;;;;;;10.43;3.60;;;13.90;99.90;;;;;;5040058;28;20541;-93
2022/09/10 08:12:42;;;;;;;7.27;3.97;;;14.00;99.90;;;;;;5041577;28;20216;-93
2022/09/10 08:15:15;;;;;;;5.57;3.57;;;14.00;99.90;;;;;;5042168;28;20204;-93
2022/09/10 08:17:47;;;;;;;11.10;3.67;;;13.90;99.90;;;;;;5043340;28;20208;-93
2022/09/10 08:20:18;;;;;;;5.57;3.60;;;13.90;99.90;;;;;;5043890;28;20236;-93
2022/09/10 08:22:51;;;;;;;8.47;3.53;;;13.80;99.90;;;;;;5039517;28;20211;-93
2022/09/10 08:25:22;;;;;;;5.80;4.03;;;13.80;99.90;;;;;;5040043;28;20209;-93
2022/09/10 08:27:57;;;;;;;4.80;3.67;;;13.80;99.90;;;;;;5038829;28;20284;-92
2022/09/10 08:30:31;;;;;;;6.30;3.97;;;13.70;99.90;;;;;;5039670;28;20295;-93
2022/09/10 08:33:03;;;;;;;5.33;3.70;;;13.60;99.90;;;;;;5038956;28;20300;-93
2022/09/10 08:35:34;;;;;;;6.53;4.00;;;13.60;99.90;;;;;;5040359;28;20246;-92
2022/09/10 08:38:05;;;;;;;5.37;3.83;;;13.60;99.90;;;;;;5049404;28;20273;-93
2022/09/10 08:40:41;;;;;;;6.30;3.67;;;13.50;99.90;;;;;;5057973;28;20221;-93
2022/09/10 08:43:16;;;;;;;5.93;3.97;;;13.40;99.90;;;;;;5057690;28;20208;-92
2022/09/10 08:45:52;;;;;;;7.07;3.70;;;13.40;99.90;;;;;;5057820;28;20231;-93
2022/09/10 08:48:24;;;;;;;8.83;3.80;;;13.40;99.90;;;;;;5057548;28;20216;-94
2022/09/10 08:51:01;;;;;;;5.07;3.57;;;13.40;99.90;;;;;;5063083;28;20211;-92
2022/09/10 08:53:40;;;;;;;9.20;4.00;;;13.30;99.90;;;;;;5077542;28;20231;-91
2022/09/10 08:56:17;;;;;;;6.83;3.77;;;13.30;99.90;;;;;;5078370;28;20204;-90
2022/09/10 08:58:55;;;;;;;5.07;3.13;;;13.30;99.90;;;;;;5077621;28;20231;-90
2022/09/10 09:01:33;;;;;;;7.47;3.60;;;13.30;99.90;;;;;;5071678;28;20228;-91
2022/09/10 09:04:10;;;;;;;5.93;3.53;;;13.30;99.90;;;;;;5069467;28;20215;-90
2022/09/10 09:06:49;;;;;;;6.80;3.60;;;13.30;99.90;;;;;;5062175;28;20207;-90
2022/09/10 09:09:21;;;;;;;8.70;3.60;;;13.20;99.90;;;;;;5061844;28;20286;-90
2022/09/10 09:12:02;;;;;;;6.43;3.40;;;13.20;99.90;;;;;;5044451;28;20212;-90
2022/09/10 09:14:48;;;;;;;6.90;3.63;;;13.20;99.90;;;;;;5061306;28;20204;-90
2022/09/10 09:17:48;;;;;;;6.83;3.77;;;13.20;99.90;;;;;;5060951;28;20726;-90
2022/09/10 09:20:28;;;;;;;5.03;3.37;;;13.10;99.90;;;;;;5060827;28;20256;-90
2022/09/10 09:23:09;;;;;;;6.50;3.57;;;13.10;99.90;;;;;;5045708;28;20208;-89
2022/09/10 09:25:48;;;;;;;4.77;2.97;;;13.10;99.90;;;;;;5040219;28;20212;-90
2022/09/10 09:28:30;;;;;;;4.73;3.20;;;13.10;99.90;;;;;;5041811;28;20223;-93
2022/09/10 09:31:11;;;;;;;6.33;3.10;;;13.10;99.90;;;;;;5041766;28;20213;-93
2022/09/10 09:33:42;;;;;;;7.97;3.60;;;13.10;99.90;;;;;;5041266;28;20815;-92
2022/09/10 09:36:18;;;;;;;5.73;3.30;;;13.00;99.90;;;;;;5043526;28;20221;-93
2022/09/10 09:38:51;;;;;;;4.80;3.00;;;13.00;99.90;;;;;;5043049;28;20204;-93
2022/09/10 09:41:29;;;;;;;5.87;3.33;;;13.00;99.90;;;;;;5041014;28;20229;-92
2022/09/10 09:44:07;;;;;;;4.47;3.20;;;12.90;99.90;;;;;;5039406;28;20272;-93
2022/09/10 09:46:41;;;;;;;6.37;3.40;;;12.90;99.90;;;;;;5041087;28;20201;-93
2022/09/10 09:49:15;;;;;;;8.13;3.57;;;12.90;99.90;;;;;;5041109;28;20209;-92
2022/09/10 09:51:50;;;;;;;6.73;3.57;;;12.80;99.90;;;;;;5038901;28;20213;-92
2022/09/10 09:54:26;;;;;;;6.63;4.00;;;12.80;99.90;;;;;;5040724;28;20313;-94
2022/09/10 09:57:19;;;;;;;6.97;3.70;;;12.80;99.90;;;;;;5042363;28;20216;-93
2022/09/10 09:59:51;;;;;;;6.40;3.77;;;12.70;99.90;;;;;;5040499;28;20216;-93
2022/09/10 10:02:25;;;;;;;6.40;3.90;;;12.70;99.90;;;;;;5040095;28;20236;-93
2022/09/10 10:05:04;;;;;;;6.37;3.80;;;12.60;99.90;;;;;;5040795;28;20215;-92
2022/09/10 10:07:37;;;;;;;8.13;4.07;;;12.60;99.90;;;;;;5038869;28;20215;-93
2022/09/10 10:10:22;;;;;;;8.23;3.67;;;12.50;99.90;;;;;;5038680;28;20244;-93
2022/09/10 10:12:55;;;;;;;7.13;3.63;;;12.50;99.90;;;;;;5037809;28;20631;-91
2022/09/10 10:15:40;;;;;;;6.30;3.63;;;12.40;99.90;;;;;;5037770;28;20205;-91
2022/09/10 10:18:32;;;;;;;4.70;3.27;;;12.50;99.90;;;;;;5037720;28;20247;-91
2022/09/10 10:21:18;;;;;;;4.97;3.70;;;12.50;99.90;;;;;;5038160;28;20323;-90
2022/09/10 10:23:51;;;;;;;7.03;3.83;;;12.50;99.90;;;;;;5036837;28;20319;-92
2022/09/10 10:26:30;;;;;;;5.87;3.60;;;12.40;99.90;;;;;;5037605;28;20213;-91
2022/09/10 10:29:06;;;;;;;6.77;3.47;;;12.40;99.90;;;;;;5037574;28;20295;-92
2022/09/10 10:31:41;;;;;;;6.60;3.93;;;12.40;99.90;;;;;;5019447;28;20205;-91
2022/09/10 10:34:44;;;;;;;5.53;3.80;;;12.40;99.90;;;;;;5040210;28;20224;-92
2022/09/10 10:37:25;;;;;;;7.13;4.50;;;12.40;99.90;;;;;;5021812;28;20287;-92
2022/09/10 10:40:13;;;;;;;8.60;4.60;;;12.40;99.90;;;;;;5037266;28;20213;-92
2022/09/10 10:42:50;;;;;;;6.53;4.23;;;12.40;99.90;;;;;;5036710;28;20236;-91
2022/09/10 10:45:50;;;;;;;6.20;4.43;;;12.40;99.90;;;;;;5037330;28;20681;-92
2022/09/10 10:48:33;;;;;;;8.70;4.33;;;12.50;99.90;;;;;;5024746;28;20209;-92
2022/09/10 10:51:17;;;;;;;10.47;4.70;;;12.40;99.90;;;;;;5037324;28;20207;-91
2022/09/10 10:54:01;;;;;;;8.73;4.80;;;12.40;99.90;;;;;;5036572;28;20208;-89
2022/09/10 10:56:39;;;;;;;10.63;4.77;;;12.40;99.90;;;;;;5037271;28;20212;-91
2022/09/10 10:59:28;;;;;;;9.20;5.00;;;12.40;99.90;;;;;;5021219;28;20204;-91
2022/09/10 11:02:10;;;;;;;12.67;5.00;;;12.40;99.90;;;;;;5040540;28;20252;-91
2022/09/10 11:04:57;;;;;;;8.43;5.13;;;12.40;99.90;;;;;;5042000;28;20219;-92
2022/09/10 11:07:35;;;;;;;8.63;5.13;;;12.40;99.90;;;;;;5040575;28;20211;-92
2022/09/10 11:10:18;;;;;;;6.37;5.30;;;12.40;99.90;;;;;;5060325;28;20233;-92
2022/09/10 11:12:54;;;;;;;9.57;5.40;;;12.40;99.90;;;;;;5059475;28;20215;-92
2022/09/10 11:15:32;;;;;;;13.03;6.13;;;12.30;99.90;;;;;;5060390;28;20226;-92
2022/09/10 11:18:12;;;;;;;13.63;6.20;;;12.30;99.90;;;;;;5060091;28;20276;-92
2022/09/10 11:20:51;;;;;;;8.70;6.07;;;12.30;99.90;;;;;;5062549;28;20208;-93
2022/09/10 11:23:48;;;;;;;7.73;5.90;;;12.30;99.90;;;;;;5089523;22;20262;-92
2022/09/10 11:26:24;;;;;;;8.97;6.83;;;12.30;99.90;;;;;;5000248;28;20224;-92
2022/09/10 11:29:04;;;;;;;9.53;6.70;;;12.30;99.90;;;;;;5007170;28;20293;-92
2022/09/10 11:31:40;;;;;;;10.93;6.53;;;12.30;99.90;;;;;;5000869;28;20210;-92
2022/09/10 11:34:17;;;;;;;7.70;6.33;;;12.20;99.90;;;;;;5001314;28;20213;-92
2022/09/10 11:36:54;;;;;;;8.13;6.80;;;12.20;99.90;;;;;;5001468;28;20214;-92
2022/09/10 11:39:39;;;;;;;13.03;7.10;;;12.20;99.90;;;;;;5001442;28;20213;-92
2022/09/10 11:42:18;;;;;;;9.60;6.97;;;12.20;99.90;;;;;;5000752;28;20318;-92
2022/09/10 11:44:59;;;;;;;11.93;7.20;;;12.10;99.90;;;;;;5003996;28;20230;-92
2022/09/10 11:47:37;;;;;;;11.20;7.23;;;12.10;99.90;;;;;;5001030;28;20269;-92
2022/09/10 11:50:21;;;;;;;12.73;7.07;;;12.10;99.90;;;;;;5001365;28;20220;-92
2022/09/10 11:52:55;;;;;;;11.47;7.20;;;12.10;99.90;;;;;;5000544;28;20217;-92
2022/09/10 11:55:40;;;;;;;11.07;7.43;;;12.10;99.90;;;;;;5001370;28;20217;-92
2022/09/10 11:58:19;;;;;;;10.37;7.73;;;12.00;99.90;;;;;;5000559;28;20230;-92
2022/09/10 12:00:59;;;;;;;10.63;7.20;;;12.00;99.90;;;;;;5001167;28;20225;-92
2022/09/10 12:04:10;;;;;;;9.43;7.20;;;12.00;99.90;;;;;;4999443;28;20249;-92
2022/09/10 12:06:52;;;;;;;9.93;6.40;;;12.00;99.90;;;;;;4999177;28;20229;-92
2022/09/10 12:09:32;;;;;;;10.93;7.73;;;11.90;99.90;;;;;;4999950;28;20213;-92
2022/09/10 12:12:12;;;;;;;11.70;7.37;;;11.90;99.90;;;;;;4999578;28;20579;-92
2022/09/10 12:14:44;;;;;;;9.63;8.00;;;11.90;99.90;;;;;;5003423;28;20249;-92
2022/09/10 12:17:20;;;;;;;11.07;7.70;;;11.90;99.90;;;;;;5004838;28;20236;-93
2022/09/10 12:19:54;;;;;;;13.57;9.37;;;11.90;99.90;;;;;;5001020;28;20225;-92
2022/09/10 12:22:29;;;;;;;12.07;8.93;;;11.90;99.90;;;;;;5005754;28;20308;-93
2022/09/10 12:25:03;;;;;;;13.00;9.60;;;12.00;99.90;;;;;;5008819;28;20218;-92
2022/09/10 12:27:55;;;;;;;13.77;9.53;;;11.90;99.90;;;;;;5006942;28;20274;-93
2022/09/10 12:31:01;;;;;;;12.20;9.87;;;11.90;99.90;;;;;;5005135;28;20253;-93
2022/09/10 12:34:01;;;;;;;12.23;9.47;;;11.90;99.90;;;;;;5002956;28;20270;-92
2022/09/10 12:37:15;;;;;;;13.53;10.23;;;11.90;99.90;;;;;;4993514;28;20218;-92
2022/09/10 12:39:47;;;;;;;11.20;9.63;;;11.90;99.90;;;;;;5016871;28;20277;-92
2022/09/10 12:42:33;;;;;;;16.00;10.17;;;11.80;99.90;;;;;;5016022;28;20238;-93
2022/09/10 12:45:10;;;;;;;17.13;10.17;;;11.80;99.90;;;;;;5000221;28;20694;-92
2022/09/10 12:48:01;;;;;;;14.97;10.87;;;11.80;99.90;;;;;;4999904;28;20221;-92
2022/09/10 12:50:45;;;;;;;13.93;10.53;;;11.80;99.90;;;;;;4999921;28;20214;-93
2022/09/10 12:53:53;;;;;;;16.33;10.60;;;11.80;99.90;;;;;;5001007;28;20221;-93
2022/09/10 12:56:42;;;;;;;14.13;11.17;;;11.90;99.90;;;;;;5007618;28;20209;-92
2022/09/10 12:59:41;;;;;;;16.73;11.10;;;11.90;99.90;;;;;;5016785;28;20210;-93
2022/09/10 13:02:31;;;;;;;14.70;11.27;;;11.90;99.90;;;;;;5015061;28;20277;-92
2022/09/10 13:05:05;;;;;;;16.17;11.37;;;11.90;99.90;;;;;;5007814;28;20221;-92
2022/09/10 13:07:40;;;;;;;13.73;11.77;;;11.90;99.90;;;;;;5000698;28;20209;-92
2022/09/10 13:10:21;;;;;;;15.67;12.00;;;11.90;99.90;;;;;;5000041;28;20214;-93
2022/09/10 13:12:55;;;;;;;15.40;11.67;;;11.90;99.90;;;;;;4998385;28;20213;-92
2022/09/10 13:15:30;;;;;;;16.43;12.70;;;11.90;99.90;;;;;;4998459;28;20202;-92
2022/09/10 13:18:32;;;;;;;14.40;12.13;;;11.90;99.90;;;;;;4999167;28;20206;-91
2022/09/10 13:21:42;;;;;;;19.13;12.30;;;11.90;99.90;;;;;;4981444;28;20218;-92
2022/09/10 13:24:38;;;;;;;17.13;12.83;;;11.90;99.90;;;;;;4965561;28;20230;-92
2022/09/10 13:27:23;;;;;;;14.53;12.73;;;11.90;99.90;;;;;;4979665;28;20211;-93
2022/09/10 13:30:11;;;;;;;19.17;13.43;;;11.80;99.90;;;;;;4979115;28;20233;-93
2022/09/10 13:32:48;;;;;;;14.87;12.90;;;11.80;99.90;;;;;;4982567;28;20226;-92
2022/09/10 13:35:54;;;;;;;16.43;13.33;;;11.80;99.90;;;;;;4978801;28;20231;-92
2022/09/10 13:38:59;;;;;;;19.40;14.13;;;11.80;99.90;;;;;;4982380;28;20215;-92
2022/09/10 13:42:07;;;;;;;18.03;13.70;;;11.80;99.90;;;;;;4982757;28;20229;-93
2022/09/10 13:44:54;;;;;;;17.77;13.60;;;11.70;99.90;;;;;;4982423;28;20231;-92
2022/09/10 13:47:35;;;;;;;19.20;13.80;;;11.70;99.90;;;;;;4979782;28;20221;-92
2022/09/10 13:50:14;;;;;;;15.80;13.97;;;11.70;99.90;;;;;;4981302;28;20210;-92
2022/09/10 13:52:50;;;;;;;16.40;13.73;;;11.70;99.90;;;;;;4994929;28;20224;-92
2022/09/10 13:55:24;;;;;;;16.07;13.73;;;11.70;99.90;;;;;;5000705;28;20220;-92
2022/09/10 13:57:59;;;;;;;19.00;13.70;;;11.70;99.90;;;;;;4998707;28;20212;-92
2022/09/10 14:00:37;;;;;;;19.80;14.63;;;11.70;99.90;;;;;;4997446;28;20217;-92
2022/09/10 14:03:17;;;;;;;23.27;15.33;;;11.60;99.90;;;;;;4997795;28;20671;-92
2022/09/10 14:05:51;;;;;;;19.03;14.83;;;11.60;99.90;;;;;;4998482;28;20232;-92
2022/09/10 14:08:30;;;;;;;19.30;14.23;;;11.70;99.90;;;;;;4999641;28;20205;-92
2022/09/10 14:11:07;;;;;;;18.47;14.80;;;11.70;99.90;;;;;;4984806;28;20218;-92
2022/09/10 14:13:44;;;;;;;18.67;15.10;;;11.70;99.90;;;;;;4999519;28;20210;-92
2022/09/10 14:16:19;;;;;;;18.33;14.77;;;11.60;99.90;;;;;;5014028;28;20198;-92
2022/09/10 14:18:54;;;;;;;21.33;14.93;;;11.60;99.90;;;;;;5014540;28;20265;-92
2022/09/10 14:21:27;;;;;;;18.67;14.83;;;11.60;99.90;;;;;;5012935;28;20206;-92
2022/09/10 14:24:01;;;;;;;20.93;15.70;;;11.70;99.90;;;;;;5009651;28;20238;-92
2022/09/10 14:26:33;;;;;;;23.17;15.00;;;11.70;99.90;;;;;;5004377;28;20222;-92
2022/09/10 14:29:24;;;;;;;18.73;15.03;;;11.70;99.90;;;;;;4998425;28;20214;-92
2022/09/10 14:31:57;;;;;;;20.00;15.30;;;11.80;99.90;;;;;;5002472;28;20663;-92
2022/09/10 14:34:34;;;;;;;22.00;15.80;;;11.80;99.90;;;;;;4997498;28;20229;-92
2022/09/10 14:37:41;;;;;;;20.87;15.90;;;11.90;99.90;;;;;;5006908;28;20296;-92
2022/09/10 14:40:20;;;;;;;20.23;15.30;;;12.00;99.90;;;;;;4995885;28;20252;-92
2022/09/10 14:42:52;;;;;;;26.17;15.00;;;12.00;99.90;;;;;;4999598;28;20234;-92
2022/09/10 14:45:42;;;;;;;18.63;15.37;;;12.00;99.90;;;;;;5000699;28;20223;-92
2022/09/10 14:48:31;;;;;;;19.90;14.17;;;12.00;99.90;;;;;;5010253;28;20215;-93
2022/09/10 14:51:21;;;;;;;19.10;14.70;;;12.10;99.90;;;;;;5017170;28;20198;-92
2022/09/10 14:53:53;;;;;;;20.53;15.40;;;12.20;99.90;;;;;;5015861;28;20206;-92
2022/09/10 14:59:26;;;;;;;21.53;15.80;;;12.30;99.90;;;;;;5011560;28;20301;-92
2022/09/10 15:04:42;;;;;;;21.17;15.50;;;12.40;99.90;;;;;;5012796;28;20306;-92
2022/09/10 15:07:14;;;;;;;20.27;16.67;;;12.50;99.90;;;;;;5009619;28;20225;-93
2022/09/10 15:09:45;;;;;;;23.10;17.07;;;12.60;99.90;;;;;;5007466;28;20216;-92
2022/09/10 15:12:41;;;;;;;20.03;17.00;;;12.70;99.90;;;;;;5009289;28;20208;-91
2022/09/10 15:15:16;;;;;;;22.90;18.13;;;12.80;99.90;;;;;;5010961;28;20234;-92